Ipixuna, Brazil
Current Conditions -  °F | °C
As of 2:00 AM on Wednesday 22 Oct 2014 (Local Time) from SBCZ Reporting Station
Moderate Fog Moderate Fog  
Wind Chill: 73°   Ceiling: Unl
Heat Index: 73°   Visibility: 0.56mi
Dew Point: 73°   Wind: 3mph
Humidity: 100%   Direction: 260°W
Pressure: 29.91"   Gusts: NA
Location:  7.05°S, 71.69°W
Report Text: SBCZ 220600Z 26003KT 0900 FG NSC 23/23 Q1013
Loading
Personal Weather Stations






























Interactive Weather Map
Tropical Storm Tracking
New forecast layout! Learn more

10-Day Weather Forecast

Advertisements
Track Severe Weather on mobile